sensor_id;sensor_type;location;lat;lon;timestamp;temperature;humidity
26821;DHT22;37186;51.394;5.454;2022-10-04T00:01:12;14.60;79.60
26821;DHT22;37186;51.394;5.454;2022-10-04T00:04:14;14.60;79.60
26821;DHT22;37186;51.394;5.454;2022-10-04T00:07:23;14.60;79.60
26821;DHT22;37186;51.394;5.454;2022-10-04T00:10:30;14.50;80.30
26821;DHT22;37186;51.394;5.454;2022-10-04T00:13:32;14.50;79.60
26821;DHT22;37186;51.394;5.454;2022-10-04T00:16:39;14.50;79.60
26821;DHT22;37186;51.394;5.454;2022-10-04T00:19:46;14.60;79.60
26821;DHT22;37186;51.394;5.454;2022-10-04T00:29:35;14.50;79.60
26821;DHT22;37186;51.394;5.454;2022-10-04T00:35:45;14.50;79.60
26821;DHT22;37186;51.394;5.454;2022-10-04T00:45:31;14.40;79.50
26821;DHT22;37186;51.394;5.454;2022-10-04T00:48:34;14.40;79.60
26821;DHT22;37186;51.394;5.454;2022-10-04T00:51:41;14.40;79.60
26821;DHT22;37186;51.394;5.454;2022-10-04T00:54:52;14.40;79.60
26821;DHT22;37186;51.394;5.454;2022-10-04T00:57:58;14.40;79.60
26821;DHT22;37186;51.394;5.454;2022-10-04T01:01:00;14.40;79.60
26821;DHT22;37186;51.394;5.454;2022-10-04T01:04:02;14.40;79.50
26821;DHT22;37186;51.394;5.454;2022-10-04T01:07:06;14.40;79.50
26821;DHT22;37186;51.394;5.454;2022-10-04T01:10:12;14.30;79.40
26821;DHT22;37186;51.394;5.454;2022-10-04T01:13:25;14.30;79.50
26821;DHT22;37186;51.394;5.454;2022-10-04T01:16:29;14.30;79.50
26821;DHT22;37186;51.394;5.454;2022-10-04T01:19:32;14.30;79.50
26821;DHT22;37186;51.394;5.454;2022-10-04T01:22:41;14.30;79.60
26821;DHT22;37186;51.394;5.454;2022-10-04T01:25:49;14.20;79.40
26821;DHT22;37186;51.394;5.454;2022-10-04T01:28:50;14.20;79.50
26821;DHT22;37186;51.394;5.454;2022-10-04T01:31:53;14.20;79.40
26821;DHT22;37186;51.394;5.454;2022-10-04T01:34:55;14.20;79.50
26821;DHT22;37186;51.394;5.454;2022-10-04T01:37:55;14.10;79.40
26821;DHT22;37186;51.394;5.454;2022-10-04T01:40:59;14.20;79.40
26821;DHT22;37186;51.394;5.454;2022-10-04T01:44:03;14.10;79.40
26821;DHT22;37186;51.394;5.454;2022-10-04T01:47:14;14.10;79.40
26821;DHT22;37186;51.394;5.454;2022-10-04T01:50:34;14.10;79.50
26821;DHT22;37186;51.394;5.454;2022-10-04T01:53:44;14.10;79.50
26821;DHT22;37186;51.394;5.454;2022-10-04T01:56:51;14.10;79.60
26821;DHT22;37186;51.394;5.454;2022-10-04T02:00:00;14.00;79.50
26821;DHT22;37186;51.394;5.454;2022-10-04T02:03:11;14.00;79.40
26821;DHT22;37186;51.394;5.454;2022-10-04T02:06:14;14.00;79.40
26821;DHT22;37186;51.394;5.454;2022-10-04T02:09:19;14.00;79.40
26821;DHT22;37186;51.394;5.454;2022-10-04T02:12:21;13.90;79.40
26821;DHT22;37186;51.394;5.454;2022-10-04T02:15:23;14.00;79.40
26821;DHT22;37186;51.394;5.454;2022-10-04T02:18:26;13.90;80.20
26821;DHT22;37186;51.394;5.454;2022-10-04T02:21:27;13.90;79.40
26821;DHT22;37186;51.394;5.454;2022-10-04T02:24:29;13.90;79.50
26821;DHT22;37186;51.394;5.454;2022-10-04T02:27:32;13.90;79.40
26821;DHT22;37186;51.394;5.454;2022-10-04T02:30:37;13.90;79.40
26821;DHT22;37186;51.394;5.454;2022-10-04T02:33:40;13.80;79.40
26821;DHT22;37186;51.394;5.454;2022-10-04T02:36:42;13.80;79.40
26821;DHT22;37186;51.394;5.454;2022-10-04T02:43:00;13.80;79.40
26821;DHT22;37186;51.394;5.454;2022-10-04T02:49:21;13.70;79.30
26821;DHT22;37186;51.394;5.454;2022-10-04T02:52:37;13.70;79.30
26821;DHT22;37186;51.394;5.454;2022-10-04T02:55:42;13.70;79.30
26821;DHT22;37186;51.394;5.454;2022-10-04T02:58:43;13.70;79.40
26821;DHT22;37186;51.394;5.454;2022-10-04T03:01:57;13.60;79.40
26821;DHT22;37186;51.394;5.454;2022-10-04T03:05:04;13.60;79.30
26821;DHT22;37186;51.394;5.454;2022-10-04T03:08:06;13.60;79.30
26821;DHT22;37186;51.394;5.454;2022-10-04T03:11:07;13.60;79.30
26821;DHT22;37186;51.394;5.454;2022-10-04T03:14:14;13.60;79.20
26821;DHT22;37186;51.394;5.454;2022-10-04T03:17:16;13.50;79.30
26821;DHT22;37186;51.394;5.454;2022-10-04T03:20:17;13.50;79.30
26821;DHT22;37186;51.394;5.454;2022-10-04T03:23:20;13.50;79.30
26821;DHT22;37186;51.394;5.454;2022-10-04T03:29:39;13.40;79.30
26821;DHT22;37186;51.394;5.454;2022-10-04T03:32:42;13.50;79.30
26821;DHT22;37186;51.394;5.454;2022-10-04T03:35:46;13.40;79.30
26821;DHT22;37186;51.394;5.454;2022-10-04T03:38:48;13.40;79.30
26821;DHT22;37186;51.394;5.454;2022-10-04T03:41:52;13.40;79.30
26821;DHT22;37186;51.394;5.454;2022-10-04T03:44:55;13.30;79.30
26821;DHT22;37186;51.394;5.454;2022-10-04T03:48:04;13.40;79.30
26821;DHT22;37186;51.394;5.454;2022-10-04T03:51:06;13.30;79.30
26821;DHT22;37186;51.394;5.454;2022-10-04T03:54:15;13.30;79.30
26821;DHT22;37186;51.394;5.454;2022-10-04T03:57:17;13.30;79.30
26821;DHT22;37186;51.394;5.454;2022-10-04T04:00:18;13.30;79.30
26821;DHT22;37186;51.394;5.454;2022-10-04T04:03:19;13.20;79.30
26821;DHT22;37186;51.394;5.454;2022-10-04T04:06:21;13.30;79.30
26821;DHT22;37186;51.394;5.454;2022-10-04T04:09:31;13.20;79.30
26821;DHT22;37186;51.394;5.454;2022-10-04T04:12:39;13.20;79.40
26821;DHT22;37186;51.394;5.454;2022-10-04T04:15:40;13.20;79.30
26821;DHT22;37186;51.394;5.454;2022-10-04T04:18:45;13.20;79.30
26821;DHT22;37186;51.394;5.454;2022-10-04T04:21:48;13.10;79.20
26821;DHT22;37186;51.394;5.454;2022-10-04T04:24:50;13.10;79.30
26821;DHT22;37186;51.394;5.454;2022-10-04T04:27:58;13.10;79.40
26821;DHT22;37186;51.394;5.454;2022-10-04T04:31:09;13.10;79.30
26821;DHT22;37186;51.394;5.454;2022-10-04T04:34:25;13.10;79.30
26821;DHT22;37186;51.394;5.454;2022-10-04T04:37:29;13.10;79.30
26821;DHT22;37186;51.394;5.454;2022-10-04T04:40:29;13.10;79.30
26821;DHT22;37186;51.394;5.454;2022-10-04T04:43:30;13.00;79.20
26821;DHT22;37186;51.394;5.454;2022-10-04T04:46:30;13.00;79.20
26821;DHT22;37186;51.394;5.454;2022-10-04T04:49:32;13.00;79.20
26821;DHT22;37186;51.394;5.454;2022-10-04T04:52:37;13.00;79.20
26821;DHT22;37186;51.394;5.454;2022-10-04T04:55:43;13.00;79.30
26821;DHT22;37186;51.394;5.454;2022-10-04T04:58:45;13.00;79.20
26821;DHT22;37186;51.394;5.454;2022-10-04T05:01:47;12.90;79.30
26821;DHT22;37186;51.394;5.454;2022-10-04T05:04:49;12.90;79.20
26821;DHT22;37186;51.394;5.454;2022-10-04T05:11:13;12.90;79.20
26821;DHT22;37186;51.394;5.454;2022-10-04T05:14:16;12.90;79.30
26821;DHT22;37186;51.394;5.454;2022-10-04T05:17:23;12.90;79.20
26821;DHT22;37186;51.394;5.454;2022-10-04T05:20:25;12.90;79.30
26821;DHT22;37186;51.394;5.454;2022-10-04T05:23:27;12.90;79.20
26821;DHT22;37186;51.394;5.454;2022-10-04T05:26:29;12.90;79.30
26821;DHT22;37186;51.394;5.454;2022-10-04T05:29:36;12.90;79.30
26821;DHT22;37186;51.394;5.454;2022-10-04T05:36:08;12.80;79.30
26821;DHT22;37186;51.394;5.454;2022-10-04T05:42:39;12.80;79.20
26821;DHT22;37186;51.394;5.454;2022-10-04T05:45:44;12.80;79.20
26821;DHT22;37186;51.394;5.454;2022-10-04T05:49:10;12.80;79.20
26821;DHT22;37186;51.394;5.454;2022-10-04T05:52:24;12.80;79.30
26821;DHT22;37186;51.394;5.454;2022-10-04T05:55:35;12.80;79.30
26821;DHT22;37186;51.394;5.454;2022-10-04T05:59:22;12.70;79.20
26821;DHT22;37186;51.394;5.454;2022-10-04T06:06:19;12.70;79.30
26821;DHT22;37186;51.394;5.454;2022-10-04T06:09:41;12.70;79.20
26821;DHT22;37186;51.394;5.454;2022-10-04T06:12:58;12.70;79.20
26821;DHT22;37186;51.394;5.454;2022-10-04T06:19:41;12.70;79.30
26821;DHT22;37186;51.394;5.454;2022-10-04T06:22:47;12.60;79.20
26821;DHT22;37186;51.394;5.454;2022-10-04T06:26:04;12.60;79.20
26821;DHT22;37186;51.394;5.454;2022-10-04T06:29:10;12.60;79.20
26821;DHT22;37186;51.394;5.454;2022-10-04T06:35:42;12.60;79.20
26821;DHT22;37186;51.394;5.454;2022-10-04T06:39:18;12.60;79.30
26821;DHT22;37186;51.394;5.454;2022-10-04T06:48:53;12.60;79.30
26821;DHT22;37186;51.394;5.454;2022-10-04T06:55:57;12.60;79.40
26821;DHT22;37186;51.394;5.454;2022-10-04T06:59:26;12.60;79.40
26821;DHT22;37186;51.394;5.454;2022-10-04T07:06:01;12.70;79.40
26821;DHT22;37186;51.394;5.454;2022-10-04T07:09:05;12.70;79.40
26821;DHT22;37186;51.394;5.454;2022-10-04T07:12:09;12.70;79.40
26821;DHT22;37186;51.394;5.454;2022-10-04T07:15:23;12.70;79.40
26821;DHT22;37186;51.394;5.454;2022-10-04T07:18:38;12.70;79.40
26821;DHT22;37186;51.394;5.454;2022-10-04T07:28:17;12.70;79.40
26821;DHT22;37186;51.394;5.454;2022-10-04T07:31:38;12.70;79.40
26821;DHT22;37186;51.394;5.454;2022-10-04T07:34:49;12.70;79.50
26821;DHT22;37186;51.394;5.454;2022-10-04T07:37:58;12.70;79.60
26821;DHT22;37186;51.394;5.454;2022-10-04T07:41:09;12.70;79.60
26821;DHT22;37186;51.394;5.454;2022-10-04T07:44:28;12.70;79.60
26821;DHT22;37186;51.394;5.454;2022-10-04T07:47:30;12.70;79.60
26821;DHT22;37186;51.394;5.454;2022-10-04T07:50:48;12.70;79.60
26821;DHT22;37186;51.394;5.454;2022-10-04T07:54:26;12.70;79.60
26821;DHT22;37186;51.394;5.454;2022-10-04T08:00:51;12.80;79.70
26821;DHT22;37186;51.394;5.454;2022-10-04T08:14:12;12.80;79.80
26821;DHT22;37186;51.394;5.454;2022-10-04T08:20:29;12.90;80.10
26821;DHT22;37186;51.394;5.454;2022-10-04T08:27:00;12.90;80.00
26821;DHT22;37186;51.394;5.454;2022-10-04T08:30:12;13.00;80.10
26821;DHT22;37186;51.394;5.454;2022-10-04T08:33:30;13.00;80.10
26821;DHT22;37186;51.394;5.454;2022-10-04T08:37:09;13.00;80.20
26821;DHT22;37186;51.394;5.454;2022-10-04T08:51:24;13.20;80.40
26821;DHT22;37186;51.394;5.454;2022-10-04T09:07:47;13.40;80.50
26821;DHT22;37186;51.394;5.454;2022-10-04T09:11:39;13.40;80.50
26821;DHT22;37186;51.394;5.454;2022-10-04T09:18:28;13.50;80.60
26821;DHT22;37186;51.394;5.454;2022-10-04T09:24:59;13.60;80.70
26821;DHT22;37186;51.394;5.454;2022-10-04T09:38:19;13.80;80.90
26821;DHT22;37186;51.394;5.454;2022-10-04T09:41:51;13.80;81.00
26821;DHT22;37186;51.394;5.454;2022-10-04T09:49:16;14.00;81.00
26821;DHT22;37186;51.394;5.454;2022-10-04T09:58:53;14.10;81.10
26821;DHT22;37186;51.394;5.454;2022-10-04T10:08:42;14.30;81.00
26821;DHT22;37186;51.394;5.454;2022-10-04T10:25:51;14.50;81.00
26821;DHT22;37186;51.394;5.454;2022-10-04T10:32:46;14.60;81.10
26821;DHT22;37186;51.394;5.454;2022-10-04T10:36:22;14.60;81.00
26821;DHT22;37186;51.394;5.454;2022-10-04T10:39:32;14.70;81.10
26821;DHT22;37186;51.394;5.454;2022-10-04T10:43:04;14.70;81.00
26821;DHT22;37186;51.394;5.454;2022-10-04T10:46:22;14.80;81.10
26821;DHT22;37186;51.394;5.454;2022-10-04T11:03:22;15.00;81.20
26821;DHT22;37186;51.394;5.454;2022-10-04T11:13:37;15.20;81.30
26821;DHT22;37186;51.394;5.454;2022-10-04T11:31:10;15.50;81.50
26821;DHT22;37186;51.394;5.454;2022-10-04T11:34:55;15.60;81.50
26821;DHT22;37186;51.394;5.454;2022-10-04T11:44:53;15.90;81.90
26821;DHT22;37186;51.394;5.454;2022-10-04T12:05:25;16.60;82.20
26821;DHT22;37186;51.394;5.454;2022-10-04T12:08:59;16.70;82.10
26821;DHT22;37186;51.394;5.454;2022-10-04T12:19:59;17.10;81.80
26821;DHT22;37186;51.394;5.454;2022-10-04T12:33:16;17.40;81.50
26821;DHT22;37186;51.394;5.454;2022-10-04T12:40:05;17.50;81.20
26821;DHT22;37186;51.394;5.454;2022-10-04T12:43:43;17.50;81.10
26821;DHT22;37186;51.394;5.454;2022-10-04T12:50:15;17.60;80.40
26821;DHT22;37186;51.394;5.454;2022-10-04T12:53:32;17.60;80.60
26821;DHT22;37186;51.394;5.454;2022-10-04T12:57:04;17.60;80.40
26821;DHT22;37186;51.394;5.454;2022-10-04T13:00:19;17.60;80.50
26821;DHT22;37186;51.394;5.454;2022-10-04T13:03:38;17.60;80.40
26821;DHT22;37186;51.394;5.454;2022-10-04T13:17:36;17.60;80.30
26821;DHT22;37186;51.394;5.454;2022-10-04T13:20:55;17.60;80.10
26821;DHT22;37186;51.394;5.454;2022-10-04T13:24:12;17.60;80.10
26821;DHT22;37186;51.394;5.454;2022-10-04T13:27:30;17.60;79.90
26821;DHT22;37186;51.394;5.454;2022-10-04T13:33:58;17.60;80.00
26821;DHT22;37186;51.394;5.454;2022-10-04T13:40:35;17.60;80.00
26821;DHT22;37186;51.394;5.454;2022-10-04T13:44:01;17.60;80.00
26821;DHT22;37186;51.394;5.454;2022-10-04T13:54:27;17.70;80.30
26821;DHT22;37186;51.394;5.454;2022-10-04T13:58:17;17.70;80.20
26821;DHT22;37186;51.394;5.454;2022-10-04T14:08:33;17.80;80.00
26821;DHT22;37186;51.394;5.454;2022-10-04T14:11:48;17.80;80.00
26821;DHT22;37186;51.394;5.454;2022-10-04T14:32:50;18.00;80.00
26821;DHT22;37186;51.394;5.454;2022-10-04T14:53:22;18.10;80.10
26821;DHT22;37186;51.394;5.454;2022-10-04T15:00:03;18.10;80.00
26821;DHT22;37186;51.394;5.454;2022-10-04T15:03:24;18.10;80.10
26821;DHT22;37186;51.394;5.454;2022-10-04T15:06:40;18.10;80.10
26821;DHT22;37186;51.394;5.454;2022-10-04T15:10:01;18.10;80.00
26821;DHT22;37186;51.394;5.454;2022-10-04T15:13:25;18.10;79.80
26821;DHT22;37186;51.394;5.454;2022-10-04T15:16:44;18.10;80.00
26821;DHT22;37186;51.394;5.454;2022-10-04T15:20:19;18.10;79.80
26821;DHT22;37186;51.394;5.454;2022-10-04T15:23:39;18.10;80.00
26821;DHT22;37186;51.394;5.454;2022-10-04T15:27:17;18.10;80.00
26821;DHT22;37186;51.394;5.454;2022-10-04T15:37:39;18.10;79.80
26821;DHT22;37186;51.394;5.454;2022-10-04T15:40:56;18.20;80.10
26821;DHT22;37186;51.394;5.454;2022-10-04T15:51:07;18.20;80.00
26821;DHT22;37186;51.394;5.454;2022-10-04T15:58:14;18.20;80.00
26821;DHT22;37186;51.394;5.454;2022-10-04T16:11:28;18.10;79.80
26821;DHT22;37186;51.394;5.454;2022-10-04T16:21:27;18.10;79.80
26821;DHT22;37186;51.394;5.454;2022-10-04T16:24:53;18.00;79.80
26821;DHT22;37186;51.394;5.454;2022-10-04T16:41:13;18.00;79.70
26821;DHT22;37186;51.394;5.454;2022-10-04T16:47:37;17.90;79.70
26821;DHT22;37186;51.394;5.454;2022-10-04T16:51:03;17.90;79.70
26821;DHT22;37186;51.394;5.454;2022-10-04T16:54:55;17.90;79.70
26821;DHT22;37186;51.394;5.454;2022-10-04T16:59:03;17.90;79.70
26821;DHT22;37186;51.394;5.454;2022-10-04T17:06:11;17.80;79.60
26821;DHT22;37186;51.394;5.454;2022-10-04T17:13:05;17.70;79.50
26821;DHT22;37186;51.394;5.454;2022-10-04T17:16:23;17.60;79.40
26821;DHT22;37186;51.394;5.454;2022-10-04T17:19:35;17.60;79.50
26821;DHT22;37186;51.394;5.454;2022-10-04T17:26:50;17.50;79.40
26821;DHT22;37186;51.394;5.454;2022-10-04T17:30:14;17.50;79.40
26821;DHT22;37186;51.394;5.454;2022-10-04T17:43:27;17.30;79.40
26821;DHT22;37186;51.394;5.454;2022-10-04T17:46:47;17.30;79.40
26821;DHT22;37186;51.394;5.454;2022-10-04T17:49:55;17.30;79.40
26821;DHT22;37186;51.394;5.454;2022-10-04T17:53:21;17.20;79.40
26821;DHT22;37186;51.394;5.454;2022-10-04T17:56:44;17.20;79.40
26821;DHT22;37186;51.394;5.454;2022-10-04T17:59:52;17.10;80.10
26821;DHT22;37186;51.394;5.454;2022-10-04T18:03:18;17.10;79.40
26821;DHT22;37186;51.394;5.454;2022-10-04T18:23:16;16.90;79.50
26821;DHT22;37186;51.394;5.454;2022-10-04T18:26:17;16.80;79.40
26821;DHT22;37186;51.394;5.454;2022-10-04T18:29:34;16.80;79.50
26821;DHT22;37186;51.394;5.454;2022-10-04T18:32:37;16.80;79.50
26821;DHT22;37186;51.394;5.454;2022-10-04T18:36:43;16.80;79.50
26821;DHT22;37186;51.394;5.454;2022-10-04T18:45:18;16.70;79.50
26821;DHT22;37186;51.394;5.454;2022-10-04T18:48:36;16.70;79.60
26821;DHT22;37186;51.394;5.454;2022-10-04T18:55:01;16.60;79.50
26821;DHT22;37186;51.394;5.454;2022-10-04T19:05:45;16.50;79.40
26821;DHT22;37186;51.394;5.454;2022-10-04T19:09:11;16.50;79.50
26821;DHT22;37186;51.394;5.454;2022-10-04T19:22:00;16.40;79.50
26821;DHT22;37186;51.394;5.454;2022-10-04T19:28:30;16.30;79.50
26821;DHT22;37186;51.394;5.454;2022-10-04T19:31:53;16.30;79.50
26821;DHT22;37186;51.394;5.454;2022-10-04T19:42:49;16.20;79.50
26821;DHT22;37186;51.394;5.454;2022-10-04T19:55:55;16.10;79.60
26821;DHT22;37186;51.394;5.454;2022-10-04T19:59:05;16.10;79.60
26821;DHT22;37186;51.394;5.454;2022-10-04T20:02:09;16.10;79.70
26821;DHT22;37186;51.394;5.454;2022-10-04T20:05:15;16.10;79.60
26821;DHT22;37186;51.394;5.454;2022-10-04T20:08:52;16.10;79.60
26821;DHT22;37186;51.394;5.454;2022-10-04T20:11:53;16.10;79.70
26821;DHT22;37186;51.394;5.454;2022-10-04T20:21:32;16.00;79.60
26821;DHT22;37186;51.394;5.454;2022-10-04T20:30:48;16.00;79.80
26821;DHT22;37186;51.394;5.454;2022-10-04T20:33:51;16.00;79.80
26821;DHT22;37186;51.394;5.454;2022-10-04T20:36:51;16.00;79.80
26821;DHT22;37186;51.394;5.454;2022-10-04T20:46:22;16.00;79.90
26821;DHT22;37186;51.394;5.454;2022-10-04T20:49:23;16.00;79.90
26821;DHT22;37186;51.394;5.454;2022-10-04T20:52:34;16.00;80.00
26821;DHT22;37186;51.394;5.454;2022-10-04T20:55:36;16.00;79.90
26821;DHT22;37186;51.394;5.454;2022-10-04T20:58:38;16.00;80.00
26821;DHT22;37186;51.394;5.454;2022-10-04T21:01:40;16.00;79.90
26821;DHT22;37186;51.394;5.454;2022-10-04T21:04:40;16.00;79.90
26821;DHT22;37186;51.394;5.454;2022-10-04T21:07:42;16.00;79.90
26821;DHT22;37186;51.394;5.454;2022-10-04T21:14:24;16.10;80.00
26821;DHT22;37186;51.394;5.454;2022-10-04T21:20:48;16.00;79.90
26821;DHT22;37186;51.394;5.454;2022-10-04T21:23:49;16.00;79.90
26821;DHT22;37186;51.394;5.454;2022-10-04T21:26:56;16.00;80.00
26821;DHT22;37186;51.394;5.454;2022-10-04T21:29:58;16.10;80.00
26821;DHT22;37186;51.394;5.454;2022-10-04T21:32:59;16.10;80.00
26821;DHT22;37186;51.394;5.454;2022-10-04T21:35:59;16.00;79.90
26821;DHT22;37186;51.394;5.454;2022-10-04T21:39:00;16.10;80.00
26821;DHT22;37186;51.394;5.454;2022-10-04T21:42:01;16.10;80.00
26821;DHT22;37186;51.394;5.454;2022-10-04T21:45:01;16.10;80.00
26821;DHT22;37186;51.394;5.454;2022-10-04T21:48:02;16.10;80.00
26821;DHT22;37186;51.394;5.454;2022-10-04T21:51:02;16.10;80.00
26821;DHT22;37186;51.394;5.454;2022-10-04T21:54:03;16.10;80.00
26821;DHT22;37186;51.394;5.454;2022-10-04T21:57:04;16.10;80.00
26821;DHT22;37186;51.394;5.454;2022-10-04T22:00:06;16.10;80.00
26821;DHT22;37186;51.394;5.454;2022-10-04T22:03:06;16.10;80.00
26821;DHT22;37186;51.394;5.454;2022-10-04T22:06:07;16.10;80.00
26821;DHT22;37186;51.394;5.454;2022-10-04T22:09:08;16.10;80.00
26821;DHT22;37186;51.394;5.454;2022-10-04T22:12:09;16.20;80.10
26821;DHT22;37186;51.394;5.454;2022-10-04T22:15:09;16.10;80.00
26821;DHT22;37186;51.394;5.454;2022-10-04T22:18:10;16.10;79.90
26821;DHT22;37186;51.394;5.454;2022-10-04T22:21:10;16.20;80.00
26821;DHT22;37186;51.394;5.454;2022-10-04T22:24:17;16.20;80.00
26821;DHT22;37186;51.394;5.454;2022-10-04T22:27:19;16.20;80.10
26821;DHT22;37186;51.394;5.454;2022-10-04T22:30:21;16.20;80.00
26821;DHT22;37186;51.394;5.454;2022-10-04T22:33:34;16.20;80.10
26821;DHT22;37186;51.394;5.454;2022-10-04T22:36:37;16.20;80.00
26821;DHT22;37186;51.394;5.454;2022-10-04T22:39:38;16.20;80.10
26821;DHT22;37186;51.394;5.454;2022-10-04T22:42:38;16.20;80.00
26821;DHT22;37186;51.394;5.454;2022-10-04T22:45:39;16.20;80.00
26821;DHT22;37186;51.394;5.454;2022-10-04T22:48:44;16.20;80.00
26821;DHT22;37186;51.394;5.454;2022-10-04T22:51:47;16.20;80.00
26821;DHT22;37186;51.394;5.454;2022-10-04T22:54:50;16.20;80.00
26821;DHT22;37186;51.394;5.454;2022-10-04T22:57:51;16.20;80.00
26821;DHT22;37186;51.394;5.454;2022-10-04T23:00:53;16.20;80.00
26821;DHT22;37186;51.394;5.454;2022-10-04T23:03:55;16.20;80.00
26821;DHT22;37186;51.394;5.454;2022-10-04T23:06:56;16.20;80.00
26821;DHT22;37186;51.394;5.454;2022-10-04T23:09:56;16.30;80.10
26821;DHT22;37186;51.394;5.454;2022-10-04T23:12:57;16.20;80.00
26821;DHT22;37186;51.394;5.454;2022-10-04T23:16:12;16.30;80.10
26821;DHT22;37186;51.394;5.454;2022-10-04T23:19:15;16.30;80.10
26821;DHT22;37186;51.394;5.454;2022-10-04T23:22:27;16.30;80.10
26821;DHT22;37186;51.394;5.454;2022-10-04T23:25:29;16.30;80.00
26821;DHT22;37186;51.394;5.454;2022-10-04T23:28:30;16.30;80.10
26821;DHT22;37186;51.394;5.454;2022-10-04T23:31:30;16.20;80.10
26821;DHT22;37186;51.394;5.454;2022-10-04T23:34:36;16.30;80.10
26821;DHT22;37186;51.394;5.454;2022-10-04T23:37:36;16.30;80.10
26821;DHT22;37186;51.394;5.454;2022-10-04T23:40:37;16.30;80.10
26821;DHT22;37186;51.394;5.454;2022-10-04T23:43:37;16.30;80.10
26821;DHT22;37186;51.394;5.454;2022-10-04T23:46:38;16.30;80.00
26821;DHT22;37186;51.394;5.454;2022-10-04T23:49:39;16.30;80.10
26821;DHT22;37186;51.394;5.454;2022-10-04T23:52:39;16.30;80.10
26821;DHT22;37186;51.394;5.454;2022-10-04T23:55:41;16.30;80.10
26821;DHT22;37186;51.394;5.454;2022-10-04T23:58:43;16.30;80.10
